Alex, Minnesota
Current Conditions -  °F | °C
As of 10:13 AM on Monday 24 Nov 2014 (Local Time) from KAXN Reporting Station
Light Snow Light Snow  
Wind Chill: -7°   Ceiling: 1700
Heat Index: 12°   Visibility: 1.2mi
Dew Point:   Wind: 23mph
Humidity: 80%   Direction: 320°NW
Pressure: 29.55"   Gusts: 30mph
Location:  45.8551°N, 95.4333°W
Report Text: KAXN 241613Z AUTO 32020G26KT 1 1/4SM -SN OVC017 M11/M14 A2955 RMK AO2 PK WND 33027/1554 P0000 T11111139
Loading
Personal Weather Stations






























Interactive Weather Map New forecast layout! Learn more

10-Day Weather Forecast

Advertisements
Track Severe Weather on mobile